Time,TemperatureF,DewpointF,PressureIn,WindDirection,WindDirectionDegrees,WindSpeedMPH,WindSpeedGustMPH,Humidity,HourlyPrecipIn,Conditions,Clouds,dailyrainin,SolarRadiationWatts/m^2,SoftwareType,DateUTC
2013-07-26 00:03:00,64.2,62.4,29.85,NW,315,0.0,0.0,94,0.00,,SKC,0.19,0.00,VWS V14.00,2013-07-26 05:03:00,
2013-07-26 00:08:00,64.2,62.4,29.85,NW,315,0.0,2.0,94,0.00,,SKC,0.00,0.00,VWS V14.00,2013-07-26 05:08:00,
2013-07-26 00:13:00,64.1,62.3,29.84,NW,315,0.0,1.0,94,0.00,,SKC,0.00,0.00,VWS V14.00,2013-07-26 05:13:00,
2013-07-26 00:18:00,64.1,62.3,29.84,NW,315,0.0,1.0,94,0.00,,SKC,0.00,0.00,VWS V14.00,2013-07-26 05:18:00,
2013-07-26 00:23:00,64.0,62.2,29.84,NW,315,0.0,1.0,94,0.00,,SKC,0.00,0.00,VWS V14.00,2013-07-26 05:23:00,
2013-07-26 00:28:00,63.9,62.1,29.84,North,5,3.0,3.0,94,0.00,,SKC,0.00,0.00,VWS V14.00,2013-07-26 05:28:00,
2013-07-26 00:33:00,63.8,62.0,29.84,NNW,348,0.0,2.0,94,0.00,,SKC,0.00,0.00,VWS V14.00,2013-07-26 05:33:00,
2013-07-26 00:38:00,63.7,61.6,29.84,NNW,348,0.0,2.0,93,0.00,,SKC,0.00,0.00,VWS V14.00,2013-07-26 05:38:00,
2013-07-26 00:43:00,63.5,61.4,29.85,NNW,348,0.0,2.0,93,0.00,,SKC,0.00,0.00,VWS V14.00,2013-07-26 05:43:00,
2013-07-26 00:48:00,63.3,61.2,29.85,WNW,291,1.0,4.0,93,0.00,,SKC,0.00,0.00,VWS V14.00,2013-07-26 05:48:00,
2013-07-26 00:53:00,63.1,60.7,29.85,WNW,293,0.0,2.0,92,0.00,,SKC,0.00,0.00,VWS V14.00,2013-07-26 05:53:00,
2013-07-26 00:58:00,62.9,60.5,29.85,WNW,293,0.0,2.0,92,0.00,,SKC,0.00,0.00,VWS V14.00,2013-07-26 05:58:00,
2013-07-26 01:03:00,62.6,59.9,29.85,WNW,302,0.0,4.0,91,0.00,,SKC,0.00,0.00,VWS V14.00,2013-07-26 06:03:00,
2013-07-26 01:08:00,62.4,59.7,29.85,NW,321,0.0,3.0,91,0.00,,SKC,0.00,0.00,VWS V14.00,2013-07-26 06:08:00,
2013-07-26 01:13:00,62.2,59.5,29.85,NW,320,0.0,3.0,91,0.00,,SKC,0.00,0.00,VWS V14.00,2013-07-26 06:13:00,
2013-07-26 01:18:00,62.0,59.0,29.85,WNW,284,0.0,4.0,90,0.00,,SKC,0.00,0.00,VWS V14.00,2013-07-26 06:18:00,
2013-07-26 01:23:00,61.8,58.8,29.85,WNW,292,0.0,4.0,90,0.00,,SKC,0.00,0.00,VWS V14.00,2013-07-26 06:23:00,
2013-07-26 01:28:00,61.6,58.6,29.85,WNW,296,2.0,4.0,90,0.00,,SKC,0.00,0.00,VWS V14.00,2013-07-26 06:28:00,
2013-07-26 01:33:00,61.5,58.5,29.85,WNW,296,0.0,2.0,90,0.00,,SKC,0.00,0.00,VWS V14.00,2013-07-26 06:33:00,
2013-07-26 01:38:00,61.4,58.5,29.85,WNW,296,0.0,3.0,90,0.00,,SKC,0.00,0.00,VWS V14.00,2013-07-26 06:38:00,
2013-07-26 01:43:00,61.2,58.2,29.85,WNW,296,0.0,2.0,90,0.00,,SKC,0.00,0.00,VWS V14.00,2013-07-26 06:43:00,
2013-07-26 01:48:00,61.1,57.8,29.85,WNW,296,0.0,3.0,89,0.00,,SKC,0.00,0.00,VWS V14.00,2013-07-26 06:48:00,
2013-07-26 01:53:00,60.9,57.6,29.85,WNW,296,0.0,2.0,89,0.00,,SKC,0.00,0.00,VWS V14.00,2013-07-26 06:53:00,
2013-07-26 01:58:00,60.8,57.5,29.85,WNW,296,0.0,1.0,89,0.00,,SKC,0.00,0.00,VWS V14.00,2013-07-26 06:58:00,
2013-07-26 02:03:00,60.6,57.7,29.85,WNW,296,0.0,1.0,90,0.00,,SKC,0.00,0.00,VWS V14.00,2013-07-26 07:03:00,
2013-07-26 02:08:00,60.4,57.5,29.85,WNW,296,0.0,1.0,90,0.00,,SKC,0.00,0.00,VWS V14.00,2013-07-26 07:08:00,
2013-07-26 02:13:00,60.2,57.3,29.85,West,279,0.0,2.0,90,0.00,,SKC,0.00,0.00,VWS V14.00,2013-07-26 07:13:00,
2013-07-26 02:18:00,60.0,57.1,29.85,NNW,336,0.0,3.0,90,0.00,,SKC,0.00,0.00,VWS V14.00,2013-07-26 07:18:00,
2013-07-26 02:23:00,59.9,57.0,29.85,WNW,292,0.0,4.0,90,0.00,,SKC,0.00,0.00,VWS V14.00,2013-07-26 07:23:00,
2013-07-26 02:28:00,59.8,56.9,29.85,WNW,294,0.0,3.0,90,0.00,,SKC,0.00,0.00,VWS V14.00,2013-07-26 07:28:00,
2013-07-26 02:33:00,59.7,57.1,29.85,NNW,335,0.0,4.0,91,0.00,,SKC,0.00,0.00,VWS V14.00,2013-07-26 07:33:00,
2013-07-26 02:38:00,59.7,56.8,29.85,North,5,4.0,4.0,90,0.00,,SKC,0.00,0.00,VWS V14.00,2013-07-26 07:38:00,
2013-07-26 02:43:00,59.6,56.7,29.85,NW,326,0.0,4.0,90,0.00,,SKC,0.00,0.00,VWS V14.00,2013-07-26 07:43:00,
2013-07-26 02:48:00,59.6,56.7,29.85,WNW,296,0.0,4.0,90,0.00,,SKC,0.00,0.00,VWS V14.00,2013-07-26 07:48:00,
2013-07-26 02:53:00,59.6,56.7,29.85,West,277,1.0,3.0,90,0.00,,SKC,0.00,0.00,VWS V14.00,2013-07-26 07:53:00,
2013-07-26 02:58:00,59.6,56.4,29.85,West,279,0.0,3.0,89,0.00,,SKC,0.00,0.00,VWS V14.00,2013-07-26 07:58:00,
2013-07-26 03:03:00,59.6,56.7,29.85,NE,46,0.0,3.0,90,0.00,,SKC,0.00,0.00,VWS V14.00,2013-07-26 08:03:00,
2013-07-26 03:08:00,59.5,56.3,29.85,North,9,3.0,4.0,89,0.00,,SKC,0.00,0.00,VWS V14.00,2013-07-26 08:08:00,
2013-07-26 03:13:00,59.4,56.2,29.85,North,355,1.0,5.0,89,0.00,,SKC,0.00,0.00,VWS V14.00,2013-07-26 08:13:00,
2013-07-26 03:18:00,59.3,56.1,29.85,West,260,0.0,4.0,89,0.00,,SKC,0.00,0.00,VWS V14.00,2013-07-26 08:18:00,
2013-07-26 03:23:00,59.2,56.0,29.85,NW,313,0.0,5.0,89,0.00,,SKC,0.00,0.00,VWS V14.00,2013-07-26 08:23:00,
2013-07-26 03:28:00,59.1,55.9,29.85,NW,310,2.0,4.0,89,0.00,,SKC,0.00,0.00,VWS V14.00,2013-07-26 08:28:00,
2013-07-26 03:33:00,58.9,55.7,29.85,NNW,328,0.0,4.0,89,0.00,,SKC,0.00,0.00,VWS V14.00,2013-07-26 08:33:00,
2013-07-26 03:38:00,58.9,55.7,29.85,WNW,289,0.0,5.0,89,0.00,,SKC,0.00,0.00,VWS V14.00,2013-07-26 08:38:00,
2013-07-26 03:43:00,58.7,55.5,29.85,NW,320,1.0,3.0,89,0.00,,SKC,0.00,0.00,VWS V14.00,2013-07-26 08:43:00,
2013-07-26 03:48:00,58.6,55.4,29.85,WNW,297,1.0,4.0,89,0.00,,SKC,0.00,0.00,VWS V14.00,2013-07-26 08:48:00,
2013-07-26 03:53:00,58.4,55.2,29.85,West,281,0.0,6.0,89,0.00,,SKC,0.00,0.00,VWS V14.00,2013-07-26 08:53:00,
2013-07-26 03:58:00,58.3,55.1,29.86,West,281,1.0,2.0,89,0.00,,SKC,0.00,0.00,VWS V14.00,2013-07-26 08:58:00,
2013-07-26 04:03:00,58.2,55.0,29.85,WNW,301,0.0,5.0,89,0.00,,SKC,0.00,0.00,VWS V14.00,2013-07-26 09:03:00,
2013-07-26 04:08:00,58.1,54.9,29.85,NW,317,3.0,9.0,89,0.00,,SKC,0.00,0.00,VWS V14.00,2013-07-26 09:08:00,
2013-07-26 04:13:00,58.0,54.8,29.85,NW,313,0.0,6.0,89,0.00,,SKC,0.00,0.00,VWS V14.00,2013-07-26 09:13:00,
2013-07-26 04:18:00,57.9,54.7,29.85,WNW,300,6.0,9.0,89,0.00,,SKC,0.00,0.00,VWS V14.00,2013-07-26 09:18:00,
2013-07-26 04:23:00,57.8,54.6,29.85,West,281,1.0,6.0,89,0.00,,SKC,0.00,0.00,VWS V14.00,2013-07-26 09:23:00,
2013-07-26 04:28:00,57.8,54.9,29.85,WNW,286,0.0,6.0,90,0.00,,SKC,0.00,0.00,VWS V14.00,2013-07-26 09:28:00,
2013-07-26 04:33:00,57.8,54.9,29.85,West,272,2.0,5.0,90,0.00,,SKC,0.00,0.00,VWS V14.00,2013-07-26 09:33:00,
2013-07-26 04:38:00,57.7,54.8,29.85,NNW,346,3.0,6.0,90,0.00,,SKC,0.00,0.00,VWS V14.00,2013-07-26 09:38:00,
2013-07-26 04:43:00,57.6,54.7,29.86,WNW,288,2.0,6.0,90,0.00,,SKC,0.00,0.00,VWS V14.00,2013-07-26 09:43:00,
2013-07-26 04:48:00,57.6,54.7,29.86,ENE,65,0.0,7.0,90,0.00,,SKC,0.00,0.00,VWS V14.00,2013-07-26 09:48:00,
2013-07-26 04:53:00,57.5,54.6,29.86,West,264,3.0,5.0,90,0.00,,SKC,0.00,0.00,VWS V14.00,2013-07-26 09:53:00,
2013-07-26 04:58:00,57.3,54.4,29.85,NW,305,0.0,9.0,90,0.00,,SKC,0.00,0.00,VWS V14.00,2013-07-26 09:58:00,
2013-07-26 05:03:00,57.2,54.3,29.86,WNW,294,2.0,10.0,90,0.00,,SKC,0.00,0.00,VWS V14.00,2013-07-26 10:03:00,
2013-07-26 05:08:00,57.1,54.2,29.86,NW,312,3.0,10.0,90,0.00,,SKC,0.00,0.00,VWS V14.00,2013-07-26 10:08:00,
2013-07-26 05:13:00,57.0,54.1,29.86,WNW,303,3.0,4.0,90,0.00,,SKC,0.00,0.00,VWS V14.00,2013-07-26 10:13:00,
2013-07-26 05:18:00,56.9,54.0,29.86,NW,317,1.0,7.0,90,0.00,,SKC,0.00,0.00,VWS V14.00,2013-07-26 10:18:00,
2013-07-26 05:23:00,56.8,54.2,29.86,NNW,330,1.0,7.0,91,0.00,,SKC,0.00,0.00,VWS V14.00,2013-07-26 10:23:00,
2013-07-26 05:28:00,56.6,54.0,29.86,WSW,250,2.0,7.0,91,0.00,,SKC,0.00,0.00,VWS V14.00,2013-07-26 10:28:00,
2013-07-26 05:33:00,56.5,53.9,29.86,NW,319,3.0,6.0,91,0.00,,SKC,0.00,0.00,VWS V14.00,2013-07-26 10:33:00,
2013-07-26 05:38:00,56.4,53.8,29.86,West,277,3.0,9.0,91,0.00,,SKC,0.00,0.00,VWS V14.00,2013-07-26 10:38:00,
2013-07-26 05:43:00,56.3,54.0,29.86,NNW,342,1.0,7.0,92,0.00,,SKC,0.00,0.00,VWS V14.00,2013-07-26 10:43:00,
2013-07-26 05:48:00,56.2,53.9,29.86,NW,304,5.0,10.0,92,0.00,,SKC,0.00,0.00,VWS V14.00,2013-07-26 10:48:00,
2013-07-26 05:53:00,56.1,53.8,29.87,WNW,285,0.0,10.0,92,0.00,,SKC,0.00,0.00,VWS V14.00,2013-07-26 10:53:00,
2013-07-26 05:58:00,56.1,53.8,29.87,North,350,1.0,7.0,92,0.00,,SKC,0.00,0.00,VWS V14.00,2013-07-26 10:58:00,
2013-07-26 06:03:00,56.1,54.1,29.86,West,265,4.0,6.0,93,0.00,,SKC,0.00,5.00,VWS V14.00,2013-07-26 11:03:00,
2013-07-26 06:08:00,56.2,54.2,29.86,WNW,283,3.0,6.0,93,0.00,,SKC,0.00,9.00,VWS V14.00,2013-07-26 11:08:00,
2013-07-26 06:13:00,56.2,54.2,29.86,WNW,302,0.0,12.0,93,0.00,,SKC,0.00,11.00,VWS V14.00,2013-07-26 11:13:00,
2013-07-26 06:18:00,56.2,54.2,29.86,WNW,291,3.0,4.0,93,0.00,,SKC,0.00,12.00,VWS V14.00,2013-07-26 11:18:00,
2013-07-26 06:23:00,56.2,54.2,29.86,NW,309,2.0,8.0,93,0.00,,SKC,0.00,19.00,VWS V14.00,2013-07-26 11:23:00,
2013-07-26 06:28:00,56.2,54.2,29.87,WSW,245,4.0,6.0,93,0.00,,SKC,0.00,12.00,VWS V14.00,2013-07-26 11:28:00,
2013-07-26 06:33:00,56.3,54.3,29.87,WNW,290,4.0,7.0,93,0.00,,SKC,0.00,14.00,VWS V14.00,2013-07-26 11:33:00,
2013-07-26 06:38:00,56.3,54.3,29.87,North,360,1.0,10.0,93,0.00,,SKC,0.00,26.00,VWS V14.00,2013-07-26 11:38:00,
2013-07-26 06:43:00,56.3,54.3,29.87,NNW,346,0.0,9.0,93,0.00,,SKC,0.00,33.00,VWS V14.00,2013-07-26 11:43:00,
2013-07-26 06:48:00,56.3,54.0,29.87,West,276,1.0,11.0,92,0.00,,SKC,0.00,32.00,VWS V14.00,2013-07-26 11:48:00,
2013-07-26 06:53:00,56.4,54.1,29.87,NE,37,3.0,9.0,92,0.00,,SKC,0.00,40.00,VWS V14.00,2013-07-26 11:53:00,
2013-07-26 06:58:00,56.5,54.2,29.88,NE,43,2.0,6.0,92,0.00,,SKC,0.00,33.00,VWS V14.00,2013-07-26 11:58:00,
2013-07-26 07:03:00,56.6,54.3,29.88,NNW,337,2.0,8.0,92,0.00,,SKC,0.00,37.00,VWS V14.00,2013-07-26 12:03:00,
2013-07-26 07:08:00,56.6,54.0,29.88,NNW,327,9.0,9.0,91,0.00,,SKC,0.00,28.00,VWS V14.00,2013-07-26 12:08:00,
2013-07-26 07:13:00,56.6,54.0,29.88,NNW,333,6.0,12.0,91,0.00,,SKC,0.00,18.00,VWS V14.00,2013-07-26 12:13:00,
2013-07-26 07:18:00,56.5,53.9,29.89,NW,315,4.0,11.0,91,0.00,,SKC,0.00,19.00,VWS V14.00,2013-07-26 12:18:00,
2013-07-26 07:23:00,56.4,53.8,29.89,NE,44,6.0,9.0,91,0.00,,SKC,0.00,30.00,VWS V14.00,2013-07-26 12:23:00,
2013-07-26 07:28:00,56.5,53.9,29.89,WNW,282,5.0,11.0,91,0.00,,SKC,0.00,58.00,VWS V14.00,2013-07-26 12:28:00,
2013-07-26 07:33:00,56.5,53.9,29.89,NNE,33,3.0,7.0,91,0.00,,SKC,0.00,47.00,VWS V14.00,2013-07-26 12:33:00,
2013-07-26 07:38:00,56.5,54.2,29.89,West,265,1.0,6.0,92,0.00,,SKC,0.00,46.00,VWS V14.00,2013-07-26 12:38:00,
2013-07-26 07:43:00,56.5,53.9,29.89,NW,313,7.0,9.0,91,0.00,,SKC,0.00,37.00,VWS V14.00,2013-07-26 12:43:00,
2013-07-26 07:48:00,56.5,53.9,29.89,WNW,296,3.0,12.0,91,0.00,,SKC,0.00,44.00,VWS V14.00,2013-07-26 12:48:00,
2013-07-26 07:53:00,56.6,54.3,29.89,WNW,282,8.0,9.0,92,0.00,,SKC,0.00,54.00,VWS V14.00,2013-07-26 12:53:00,
2013-07-26 07:58:00,56.7,54.1,29.89,West,265,0.0,11.0,91,0.00,,SKC,0.00,33.00,VWS V14.00,2013-07-26 12:58:00,
2013-07-26 08:03:00,56.8,54.5,29.89,NW,313,2.0,9.0,92,0.00,,SKC,0.00,70.00,VWS V14.00,2013-07-26 13:03:00,
2013-07-26 08:08:00,56.9,54.6,29.89,WNW,283,0.0,6.0,92,0.00,,SKC,0.00,137.00,VWS V14.00,2013-07-26 13:08:00,
2013-07-26 08:13:00,57.1,54.8,29.89,West,261,3.0,9.0,92,0.00,,SKC,0.00,81.00,VWS V14.00,2013-07-26 13:13:00,
2013-07-26 08:18:00,57.3,54.7,29.89,NW,326,3.0,10.0,91,0.00,,SKC,0.00,88.00,VWS V14.00,2013-07-26 13:18:00,
2013-07-26 08:23:00,57.5,54.9,29.89,NW,311,6.0,7.0,91,0.00,,SKC,0.00,95.00,VWS V14.00,2013-07-26 13:23:00,
2013-07-26 08:28:00,57.7,55.1,29.89,WSW,253,4.0,9.0,91,0.00,,SKC,0.00,111.00,VWS V14.00,2013-07-26 13:28:00,
2013-07-26 08:33:00,57.8,55.2,29.89,North,5,3.0,10.0,91,0.00,,SKC,0.00,148.00,VWS V14.00,2013-07-26 13:33:00,
2013-07-26 08:38:00,58.1,55.5,29.89,West,273,1.0,9.0,91,0.00,,SKC,0.00,163.00,VWS V14.00,2013-07-26 13:38:00,
2013-07-26 08:43:00,58.4,55.5,29.89,West,268,3.0,12.0,90,0.01,,SKC,0.01,213.00,VWS V14.00,2013-07-26 13:43:00,
2013-07-26 08:48:00,58.8,55.9,29.89,ENE,59,1.0,8.0,90,0.01,,SKC,0.01,172.00,VWS V14.00,2013-07-26 13:48:00,
2013-07-26 08:53:00,59.2,56.3,29.90,NW,323,3.0,9.0,90,0.01,,SKC,0.01,211.00,VWS V14.00,2013-07-26 13:53:00,
2013-07-26 08:58:00,59.6,56.4,29.90,WNW,294,2.0,10.0,89,0.01,,SKC,0.01,179.00,VWS V14.00,2013-07-26 13:58:00,
2013-07-26 09:03:00,59.8,56.2,29.90,NW,321,7.0,12.0,88,0.01,,SKC,0.01,202.00,VWS V14.00,2013-07-26 14:03:00,
2013-07-26 09:08:00,60.0,56.4,29.90,SE,139,5.0,12.0,88,0.01,,SKC,0.01,155.00,VWS V14.00,2013-07-26 14:08:00,
2013-07-26 09:13:00,60.1,56.8,29.90,West,262,5.0,7.0,89,0.01,,SKC,0.01,239.00,VWS V14.00,2013-07-26 14:13:00,
2013-07-26 09:18:00,60.3,57.0,29.90,North,351,5.0,9.0,89,0.01,,SKC,0.01,271.00,VWS V14.00,2013-07-26 14:18:00,
2013-07-26 09:23:00,60.5,56.9,29.90,NW,306,2.0,12.0,88,0.01,,SKC,0.01,265.00,VWS V14.00,2013-07-26 14:23:00,
2013-07-26 09:28:00,60.6,57.0,29.90,North,355,2.0,10.0,88,0.01,,SKC,0.01,276.00,VWS V14.00,2013-07-26 14:28:00,
2013-07-26 09:33:00,60.8,57.2,29.90,WNW,300,3.0,12.0,88,0.01,,SKC,0.01,227.00,VWS V14.00,2013-07-26 14:33:00,
2013-07-26 09:38:00,60.9,57.3,29.90,NW,317,4.0,10.0,88,0.01,,SKC,0.01,229.00,VWS V14.00,2013-07-26 14:38:00,
2013-07-26 09:43:00,61.2,57.6,29.90,North,355,0.0,10.0,88,0.01,,SKC,0.01,332.00,VWS V14.00,2013-07-26 14:43:00,
2013-07-26 09:48:00,61.7,58.7,29.90,West,274,1.0,6.0,90,0.00,,SKC,0.01,253.00,VWS V14.00,2013-07-26 14:48:00,
2013-07-26 09:53:00,62.2,58.0,29.90,NNW,329,10.0,11.0,86,0.00,,SKC,0.01,207.00,VWS V14.00,2013-07-26 14:53:00,
2013-07-26 09:58:00,62.3,58.1,29.91,WNW,299,5.0,11.0,86,0.00,,SKC,0.01,155.00,VWS V14.00,2013-07-26 14:58:00,
2013-07-26 10:03:00,62.4,58.5,29.91,North,360,2.0,9.0,87,0.00,,SKC,0.01,257.00,VWS V14.00,2013-07-26 15:03:00,
2013-07-26 10:08:00,62.3,58.4,29.91,NNW,342,5.0,11.0,87,0.00,,SKC,0.01,200.00,VWS V14.00,2013-07-26 15:08:00,
2013-07-26 10:13:00,62.2,58.6,29.91,West,265,0.0,7.0,88,0.00,,SKC,0.01,327.00,VWS V14.00,2013-07-26 15:13:00,
2013-07-26 10:18:00,62.1,58.8,29.91,NNE,19,10.0,13.0,89,0.00,,SKC,0.01,315.00,VWS V14.00,2013-07-26 15:18:00,
2013-07-26 10:23:00,62.3,58.7,29.92,NW,313,3.0,10.0,88,0.00,,SKC,0.01,726.00,VWS V14.00,2013-07-26 15:23:00,
2013-07-26 10:28:00,62.9,59.0,29.91,North,360,2.0,6.0,87,0.00,,SKC,0.01,638.00,VWS V14.00,2013-07-26 15:28:00,
2013-07-26 10:33:00,63.2,59.0,29.92,NW,309,6.0,9.0,86,0.00,,SKC,0.01,290.00,VWS V14.00,2013-07-26 15:33:00,
2013-07-26 10:38:00,63.4,58.5,29.92,West,277,2.0,11.0,84,0.00,,SKC,0.01,274.00,VWS V14.00,2013-07-26 15:38:00,
2013-07-26 10:43:00,63.4,57.8,29.93,East,95,2.0,12.0,82,0.00,,SKC,0.01,276.00,VWS V14.00,2013-07-26 15:43:00,
2013-07-26 10:48:00,63.4,57.8,29.92,NE,37,9.0,11.0,82,0.00,,SKC,0.01,777.00,VWS V14.00,2013-07-26 15:48:00,
2013-07-26 10:53:00,63.8,57.5,29.92,North,360,3.0,12.0,80,0.00,,SKC,0.01,939.00,VWS V14.00,2013-07-26 15:53:00,
2013-07-26 10:58:00,64.6,58.7,29.93,West,270,2.0,7.0,81,0.00,,SKC,0.01,239.00,VWS V14.00,2013-07-26 15:58:00,
2013-07-26 11:03:00,64.7,58.0,29.93,NNE,13,1.0,12.0,79,0.00,,SKC,0.01,243.00,VWS V14.00,2013-07-26 16:03:00,
2013-07-26 11:08:00,64.3,57.7,29.93,WNW,298,5.0,10.0,79,0.00,,SKC,0.01,432.00,VWS V14.00,2013-07-26 16:08:00,
2013-07-26 11:13:00,64.2,58.3,29.94,ENE,78,1.0,6.0,81,0.00,,SKC,0.01,345.00,VWS V14.00,2013-07-26 16:13:00,
2013-07-26 11:18:00,64.4,58.1,29.94,NNW,329,3.0,9.0,80,0.00,,SKC,0.01,239.00,VWS V14.00,2013-07-26 16:18:00,
2013-07-26 11:23:00,64.5,58.2,29.94,NNW,338,4.0,9.0,80,0.00,,SKC,0.01,415.00,VWS V14.00,2013-07-26 16:23:00,
2013-07-26 11:28:00,64.9,57.9,29.94,NW,321,5.0,9.0,78,0.00,,SKC,0.01,250.00,VWS V14.00,2013-07-26 16:28:00,
2013-07-26 11:33:00,64.8,57.4,29.94,West,279,4.0,10.0,77,0.00,,SKC,0.01,251.00,VWS V14.00,2013-07-26 16:33:00,
2013-07-26 11:38:00,64.7,57.0,29.94,NW,313,4.0,9.0,76,0.00,,SKC,0.01,737.00,VWS V14.00,2013-07-26 16:38:00,
2013-07-26 11:43:00,65.0,57.3,29.94,East,91,4.0,16.0,76,0.00,,SKC,0.01,246.00,VWS V14.00,2013-07-26 16:43:00,
2013-07-26 11:48:00,65.6,57.5,29.94,ENE,62,4.0,9.0,75,0.00,,SKC,0.01,204.00,VWS V14.00,2013-07-26 16:48:00,
2013-07-26 11:53:00,65.8,57.3,29.94,North,355,2.0,9.0,74,0.00,,SKC,0.01,983.00,VWS V14.00,2013-07-26 16:53:00,
2013-07-26 11:58:00,66.2,56.9,29.95,West,265,2.0,12.0,72,0.00,,SKC,0.01,290.00,VWS V14.00,2013-07-26 16:58:00,
2013-07-26 12:03:00,66.6,57.3,29.94,North,355,5.0,18.0,72,0.00,,SKC,0.01,1164.00,VWS V14.00,2013-07-26 17:03:00,
2013-07-26 12:08:00,66.8,57.1,29.95,ENE,71,1.0,11.0,71,0.00,,SKC,0.01,158.00,VWS V14.00,2013-07-26 17:08:00,
2013-07-26 12:13:00,66.4,56.7,29.96,West,279,3.0,10.0,71,0.00,,SKC,0.01,171.00,VWS V14.00,2013-07-26 17:13:00,
2013-07-26 12:18:00,65.9,56.2,29.96,NNE,31,2.0,12.0,71,0.00,,SKC,0.01,264.00,VWS V14.00,2013-07-26 17:18:00,
2013-07-26 12:23:00,65.6,56.3,29.96,NW,316,2.0,10.0,72,0.00,,SKC,0.01,288.00,VWS V14.00,2013-07-26 17:23:00,
2013-07-26 12:28:00,65.5,56.2,29.96,SE,134,2.0,16.0,72,0.00,,SKC,0.01,510.00,VWS V14.00,2013-07-26 17:28:00,
2013-07-26 12:33:00,65.4,56.2,29.96,NW,313,6.0,13.0,72,0.00,,SKC,0.01,316.00,VWS V14.00,2013-07-26 17:33:00,
2013-07-26 12:39:00,66.0,56.7,29.96,NE,48,2.0,7.0,72,0.00,,SKC,0.01,1137.00,VWS V14.00,2013-07-26 17:39:00,
2013-07-26 12:45:00,66.5,56.8,29.97,North,355,7.0,12.0,71,0.00,,SKC,0.01,130.00,VWS V14.00,2013-07-26 17:45:00,
2013-07-26 12:50:00,66.1,57.2,29.97,NNW,329,1.0,7.0,73,0.00,,SKC,0.01,134.00,VWS V14.00,2013-07-26 17:50:00,
2013-07-26 12:55:00,65.8,56.9,29.97,WNW,302,2.0,11.0,73,0.00,,SKC,0.01,360.00,VWS V14.00,2013-07-26 17:55:00,
2013-07-26 13:00:00,65.7,56.4,29.97,SE,144,2.0,9.0,72,0.00,,SKC,0.01,360.00,VWS V14.00,2013-07-26 18:00:00,
2013-07-26 13:05:00,66.2,56.5,29.97,NNE,28,4.0,14.0,71,0.00,,SKC,0.01,582.00,VWS V14.00,2013-07-26 18:05:00,
2013-07-26 13:10:00,66.7,56.6,29.97,East,89,4.0,6.0,70,0.00,,SKC,0.01,468.00,VWS V14.00,2013-07-26 18:10:00,
2013-07-26 13:15:00,66.8,55.5,29.97,West,266,6.0,6.0,67,0.00,,SKC,0.01,468.00,VWS V14.00,2013-07-26 18:15:00,
2013-07-26 13:20:00,67.2,55.9,29.96,North,360,1.0,7.0,67,0.00,,SKC,0.01,468.00,VWS V14.00,2013-07-26 18:20:00,
2013-07-26 13:25:00,67.6,56.3,29.96,ENE,69,2.0,7.0,67,0.00,,SKC,0.01,462.00,VWS V14.00,2013-07-26 18:25:00,
2013-07-26 13:30:00,67.7,57.2,29.96,NNE,30,2.0,3.0,69,0.00,,SKC,0.01,441.00,VWS V14.00,2013-07-26 18:30:00,
2013-07-26 13:35:00,67.7,56.4,29.96,SE,136,2.0,6.0,67,0.00,,SKC,0.01,323.00,VWS V14.00,2013-07-26 18:35:00,
2013-07-26 13:40:00,67.2,55.5,29.96,WNW,298,4.0,9.0,66,0.00,,SKC,0.01,160.00,VWS V14.00,2013-07-26 18:40:00,
2013-07-26 13:45:00,66.6,55.3,29.96,NNW,348,4.0,10.0,67,0.00,,SKC,0.01,197.00,VWS V14.00,2013-07-26 18:45:00,
2013-07-26 13:50:00,66.0,55.2,29.96,NNE,29,3.0,6.0,68,0.00,,SKC,0.01,309.00,VWS V14.00,2013-07-26 18:50:00,
2013-07-26 13:55:00,65.5,55.5,29.96,East,99,1.0,10.0,70,0.00,,SKC,0.01,373.00,VWS V14.00,2013-07-26 18:55:00,
2013-07-26 14:00:00,65.4,55.4,29.96,SW,225,3.0,9.0,70,0.00,,SKC,0.01,473.00,VWS V14.00,2013-07-26 19:00:00,
2013-07-26 14:05:00,65.6,56.0,29.97,North,350,3.0,10.0,71,0.00,,SKC,0.01,401.00,VWS V14.00,2013-07-26 19:05:00,
2013-07-26 14:10:00,65.8,56.5,29.97,East,86,3.0,7.0,72,0.00,,SKC,0.01,454.00,VWS V14.00,2013-07-26 19:10:00,
2013-07-26 14:15:00,66.0,56.3,29.97,NW,309,7.0,7.0,71,0.00,,SKC,0.01,1081.00,VWS V14.00,2013-07-26 19:15:00,
2013-07-26 14:20:00,66.7,57.0,29.97,WNW,297,2.0,4.0,71,0.00,,SKC,0.01,940.00,VWS V14.00,2013-07-26 19:20:00,
2013-07-26 14:25:00,67.5,56.2,29.96,NW,308,2.0,12.0,67,0.00,,SKC,0.01,997.00,VWS V14.00,2013-07-26 19:25:00,
2013-07-26 14:30:00,68.0,56.7,29.96,NW,325,2.0,7.0,67,0.00,,SKC,0.01,158.00,VWS V14.00,2013-07-26 19:30:00,
2013-07-26 14:36:00,67.6,57.1,29.97,SSW,211,3.0,12.0,69,0.00,,SKC,0.01,183.00,VWS V14.00,2013-07-26 19:36:00,
2013-07-26 14:41:00,67.0,57.3,29.97,NNW,340,4.0,11.0,71,0.00,,SKC,0.01,353.00,VWS V14.00,2013-07-26 19:41:00,
2013-07-26 14:46:00,66.7,56.6,29.97,NW,318,6.0,10.0,70,0.00,,SKC,0.01,464.00,VWS V14.00,2013-07-26 19:46:00,
2013-07-26 14:51:00,66.6,56.5,29.97,NW,319,3.0,9.0,70,0.00,,SKC,0.01,622.00,VWS V14.00,2013-07-26 19:51:00,
2013-07-26 14:56:00,66.8,55.9,29.97,North,355,3.0,9.0,68,0.00,,SKC,0.01,496.00,VWS V14.00,2013-07-26 19:56:00,
2013-07-26 15:01:00,67.0,56.9,29.97,NW,317,4.0,7.0,70,0.00,,SKC,0.01,483.00,VWS V14.00,2013-07-26 20:01:00,
2013-07-26 15:06:00,67.3,56.8,29.97,NNW,341,2.0,8.0,69,0.00,,SKC,0.01,529.00,VWS V14.00,2013-07-26 20:06:00,
2013-07-26 15:11:00,67.6,57.5,29.97,NE,55,1.0,7.0,70,0.00,,SKC,0.01,529.00,VWS V14.00,2013-07-26 20:11:00,
2013-07-26 15:16:00,68.0,57.5,29.97,SW,217,3.0,6.0,69,0.00,,SKC,0.01,628.00,VWS V14.00,2013-07-26 20:16:00,
2013-07-26 15:21:00,68.6,58.0,29.97,NNW,340,4.0,7.0,69,0.00,,SKC,0.01,475.00,VWS V14.00,2013-07-26 20:21:00,
2013-07-26 15:26:00,68.8,57.0,29.97,SE,134,3.0,10.0,66,0.00,,SKC,0.01,139.00,VWS V14.00,2013-07-26 20:26:00,
2013-07-26 15:31:00,68.3,57.3,29.97,South,173,2.0,10.0,68,0.00,,SKC,0.01,70.00,VWS V14.00,2013-07-26 20:31:00,
2013-07-26 15:36:00,67.3,57.2,29.98,NW,322,3.0,10.0,70,0.00,,SKC,0.01,109.00,VWS V14.00,2013-07-26 20:36:00,
2013-07-26 15:43:00,66.2,56.1,29.98,ESE,123,5.0,8.0,70,0.00,,SKC,0.01,185.00,VWS V14.00,2013-07-26 20:43:00,
2013-07-26 15:48:00,65.7,56.4,29.98,WNW,298,1.0,7.0,72,0.00,,SKC,0.01,176.00,VWS V14.00,2013-07-26 20:48:00,
2013-07-26 15:53:00,65.5,56.2,29.99,ENE,69,1.0,8.0,72,0.00,,SKC,0.01,185.00,VWS V14.00,2013-07-26 20:53:00,
2013-07-26 15:58:00,65.5,56.2,29.99,NW,315,2.0,6.0,72,0.00,,SKC,0.01,260.00,VWS V14.00,2013-07-26 20:58:00,
2013-07-26 16:03:00,65.6,56.0,29.99,NNW,347,3.0,7.0,71,0.00,,SKC,0.01,230.00,VWS V14.00,2013-07-26 21:03:00,
2013-07-26 16:08:00,65.8,56.2,29.99,NNW,327,3.0,7.0,71,0.00,,SKC,0.01,171.00,VWS V14.00,2013-07-26 21:08:00,
2013-07-26 16:13:00,65.8,55.4,29.99,NW,308,6.0,6.0,69,0.00,,SKC,0.01,70.00,VWS V14.00,2013-07-26 21:13:00,
2013-07-26 16:18:00,65.6,56.0,29.99,SW,233,1.0,1.0,71,0.00,,SKC,0.01,79.00,VWS V14.00,2013-07-26 21:18:00,
2013-07-26 16:23:00,65.4,55.8,29.99,SSE,152,3.0,3.0,71,0.00,,SKC,0.01,62.00,VWS V14.00,2013-07-26 21:23:00,
2013-07-26 16:28:00,65.1,55.1,30.00,ESE,107,3.0,5.0,70,0.00,,SKC,0.01,86.00,VWS V14.00,2013-07-26 21:28:00,
2013-07-26 16:33:00,64.7,55.1,30.00,SE,137,3.0,3.0,71,0.00,,SKC,0.01,127.00,VWS V14.00,2013-07-26 21:33:00,
2013-07-26 16:38:00,64.5,54.9,30.00,NNE,21,4.0,6.0,71,0.00,,SKC,0.01,197.00,VWS V14.00,2013-07-26 21:38:00,
2013-07-26 16:43:00,64.5,54.9,29.99,ENE,58,1.0,1.0,71,0.00,,SKC,0.01,227.00,VWS V14.00,2013-07-26 21:43:00,
2013-07-26 16:48:00,64.7,55.1,29.99,ESE,122,1.0,1.0,71,0.00,,SKC,0.01,197.00,VWS V14.00,2013-07-26 21:48:00,
2013-07-26 16:53:00,64.8,54.4,30.00,SW,231,4.0,5.0,69,0.00,,SKC,0.01,186.00,VWS V14.00,2013-07-26 21:53:00,
2013-07-26 16:59:00,64.8,54.4,29.99,NNW,331,4.0,4.0,69,0.00,,SKC,0.01,220.00,VWS V14.00,2013-07-26 21:59:00,
2013-07-26 17:04:00,65.2,54.8,29.99,West,279,6.0,6.0,69,0.00,,SKC,0.01,352.00,VWS V14.00,2013-07-26 22:04:00,
2013-07-26 17:09:00,65.6,55.2,29.99,NW,319,2.0,3.0,69,0.00,,SKC,0.01,202.00,VWS V14.00,2013-07-26 22:09:00,
2013-07-26 17:14:00,65.7,55.3,29.99,North,355,3.0,4.0,69,0.00,,SKC,0.01,323.00,VWS V14.00,2013-07-26 22:14:00,
2013-07-26 17:19:00,65.9,54.7,29.99,NNE,27,1.0,2.0,67,0.00,,SKC,0.01,348.00,VWS V14.00,2013-07-26 22:19:00,
2013-07-26 17:24:00,66.1,55.2,29.99,WSW,238,4.0,4.0,68,0.00,,SKC,0.01,288.00,VWS V14.00,2013-07-26 22:24:00,
2013-07-26 17:29:00,66.3,55.8,29.99,ENE,73,4.0,5.0,69,0.00,,SKC,0.01,348.00,VWS V14.00,2013-07-26 22:29:00,
2013-07-26 17:34:00,66.5,55.6,29.99,NE,46,1.0,2.0,68,0.00,,SKC,0.01,276.00,VWS V14.00,2013-07-26 22:34:00,
2013-07-26 17:39:00,66.6,55.7,30.00,East,93,3.0,9.0,68,0.00,,SKC,0.01,200.00,VWS V14.00,2013-07-26 22:39:00,
2013-07-26 17:44:00,66.4,55.5,29.99,South,171,3.0,3.0,68,0.00,,SKC,0.01,246.00,VWS V14.00,2013-07-26 22:44:00,
2013-07-26 17:49:00,66.3,53.3,30.00,North,9,1.0,5.0,63,0.00,,SKC,0.01,225.00,VWS V14.00,2013-07-26 22:49:00,
2013-07-26 17:54:00,66.2,52.8,30.00,SW,221,5.0,7.0,62,0.00,,SKC,0.01,401.00,VWS V14.00,2013-07-26 22:54:00,
2013-07-26 17:59:00,66.3,53.3,30.00,SSE,153,2.0,4.0,63,0.00,,SKC,0.01,262.00,VWS V14.00,2013-07-26 22:59:00,
2013-07-26 18:04:00,66.4,53.0,30.00,ESE,114,2.0,5.0,62,0.00,,SKC,0.01,621.00,VWS V14.00,2013-07-26 23:04:00,
2013-07-26 18:09:00,66.7,51.9,30.00,NE,40,2.0,7.0,59,0.00,,SKC,0.01,427.00,VWS V14.00,2013-07-26 23:09:00,
2013-07-26 18:14:00,66.9,53.0,29.99,ESE,113,2.0,4.0,61,0.00,,SKC,0.01,420.00,VWS V14.00,2013-07-26 23:14:00,
2013-07-26 18:19:00,67.1,52.8,30.00,SE,142,3.0,3.0,60,0.00,,SKC,0.01,408.00,VWS V14.00,2013-07-26 23:19:00,
2013-07-26 18:24:00,67.3,53.4,30.00,NE,35,0.0,2.0,61,0.00,,SKC,0.01,390.00,VWS V14.00,2013-07-26 23:24:00,
2013-07-26 18:29:00,67.5,54.0,29.99,North,355,2.0,4.0,62,0.00,,SKC,0.01,401.00,VWS V14.00,2013-07-26 23:29:00,
2013-07-26 18:34:00,67.6,53.7,29.99,NE,44,1.0,5.0,61,0.00,,SKC,0.01,149.00,VWS V14.00,2013-07-26 23:34:00,
2013-07-26 18:39:00,67.3,54.3,29.99,NNW,328,2.0,5.0,63,0.00,,SKC,0.01,202.00,VWS V14.00,2013-07-26 23:39:00,
2013-07-26 18:44:00,66.9,53.0,29.99,SSW,212,1.0,2.0,61,0.00,,SKC,0.01,116.00,VWS V14.00,2013-07-26 23:44:00,
2013-07-26 18:49:00,66.5,54.0,29.99,North,360,3.0,3.0,64,0.00,,SKC,0.01,130.00,VWS V14.00,2013-07-26 23:49:00,
2013-07-26 18:54:00,66.2,53.7,29.99,WNW,286,1.0,2.0,64,0.00,,SKC,0.01,81.00,VWS V14.00,2013-07-26 23:54:00,
2013-07-26 18:59:00,65.9,53.8,29.99,SSW,192,1.0,5.0,65,0.00,,SKC,0.01,128.00,VWS V14.00,2013-07-26 23:59:00,
2013-07-26 19:05:00,65.8,53.7,30.00,NNW,339,3.0,3.0,65,0.00,,SKC,0.01,250.00,VWS V14.00,2013-07-27 00:05:00,
2013-07-26 19:10:00,65.8,52.9,29.99,North,350,5.0,7.0,63,0.00,,SKC,0.01,105.00,VWS V14.00,2013-07-27 00:10:00,
2013-07-26 19:15:00,65.5,52.6,30.00,ENE,76,3.0,5.0,63,0.00,,SKC,0.01,116.00,VWS V14.00,2013-07-27 00:15:00,
2013-07-26 19:20:00,65.2,54.0,30.00,NE,50,1.0,2.0,67,0.00,,SKC,0.01,109.00,VWS V14.00,2013-07-27 00:20:00,
2013-07-26 19:25:00,64.9,53.7,30.00,ENE,77,4.0,5.0,67,0.00,,SKC,0.01,98.00,VWS V14.00,2013-07-27 00:25:00,
2013-07-26 19:30:00,64.6,53.4,30.00,SE,146,1.0,4.0,67,0.00,,SKC,0.01,74.00,VWS V14.00,2013-07-27 00:30:00,
2013-07-26 19:35:00,64.0,52.0,30.00,WNW,286,2.0,4.0,65,0.00,,SKC,0.01,58.00,VWS V14.00,2013-07-27 00:35:00,
2013-07-26 19:40:00,63.6,51.6,30.00,SSE,155,1.0,4.0,65,0.00,,SKC,0.01,53.00,VWS V14.00,2013-07-27 00:40:00,
2013-07-26 19:45:00,63.2,51.7,30.00,South,186,1.0,4.0,66,0.00,,SKC,0.01,69.00,VWS V14.00,2013-07-27 00:45:00,
2013-07-26 19:50:00,63.0,51.9,30.00,NE,50,1.0,4.0,67,0.00,,SKC,0.01,70.00,VWS V14.00,2013-07-27 00:50:00,
2013-07-26 19:55:00,62.8,52.1,30.00,NNE,30,0.0,3.0,68,0.00,,SKC,0.01,51.00,VWS V14.00,2013-07-27 00:55:00,
2013-07-26 20:00:00,62.6,51.9,30.00,North,355,1.0,6.0,68,0.00,,SKC,0.01,35.00,VWS V14.00,2013-07-27 01:00:00,
2013-07-26 20:05:00,62.3,52.0,30.00,WSW,251,1.0,3.0,69,0.00,,SKC,0.01,42.00,VWS V14.00,2013-07-27 01:05:00,
2013-07-26 20:10:00,62.1,51.8,30.00,ENE,61,1.0,4.0,69,0.00,,SKC,0.01,39.00,VWS V14.00,2013-07-27 01:10:00,
2013-07-26 20:15:00,61.8,51.9,30.01,East,83,5.0,5.0,70,0.00,,SKC,0.01,25.00,VWS V14.00,2013-07-27 01:15:00,
2013-07-26 20:20:00,61.4,51.5,30.01,ENE,59,0.0,5.0,70,0.00,,SKC,0.01,18.00,VWS V14.00,2013-07-27 01:20:00,
2013-07-26 20:25:00,61.1,51.6,30.01,ENE,70,1.0,2.0,71,0.00,,SKC,0.01,16.00,VWS V14.00,2013-07-27 01:25:00,
2013-07-26 20:30:00,60.9,51.8,30.01,NNE,16,2.0,3.0,72,0.00,,SKC,0.01,14.00,VWS V14.00,2013-07-27 01:30:00,
2013-07-26 20:35:00,60.7,51.6,30.01,SSE,154,0.0,3.0,72,0.00,,SKC,0.01,12.00,VWS V14.00,2013-07-27 01:35:00,
2013-07-26 20:40:00,60.3,51.6,30.01,NE,47,0.0,4.0,73,0.00,,SKC,0.01,11.00,VWS V14.00,2013-07-27 01:40:00,
2013-07-26 20:45:00,60.1,51.4,30.01,East,89,1.0,2.0,73,0.00,,SKC,0.01,9.00,VWS V14.00,2013-07-27 01:45:00,
2013-07-26 20:50:00,59.8,51.1,30.01,East,81,6.0,6.0,73,0.00,,SKC,0.01,5.00,VWS V14.00,2013-07-27 01:50:00,
2013-07-26 20:56:00,59.5,50.8,30.01,NE,55,3.0,3.0,73,0.00,,SKC,0.01,0.00,VWS V14.00,2013-07-27 01:56:00,
2013-07-26 21:01:00,59.3,50.7,30.01,NE,55,0.0,1.0,73,0.00,,SKC,0.01,0.00,VWS V14.00,2013-07-27 02:01:00,
2013-07-26 21:06:00,59.1,50.8,30.02,East,82,2.0,4.0,74,0.00,,SKC,0.01,0.00,VWS V14.00,2013-07-27 02:06:00,
2013-07-26 21:11:00,58.7,50.1,30.01,East,88,1.0,4.0,73,0.00,,SKC,0.01,0.00,VWS V14.00,2013-07-27 02:11:00,
2013-07-26 21:16:00,58.5,50.2,30.02,East,95,3.0,5.0,74,0.00,,SKC,0.01,0.00,VWS V14.00,2013-07-27 02:16:00,
2013-07-26 21:21:00,58.2,50.3,30.02,NE,42,3.0,3.0,75,0.00,,SKC,0.01,0.00,VWS V14.00,2013-07-27 02:21:00,
2013-07-26 21:26:00,58.0,49.8,30.02,East,87,0.0,6.0,74,0.00,,SKC,0.01,0.00,VWS V14.00,2013-07-27 02:26:00,
2013-07-26 21:31:00,57.7,49.8,30.02,NE,46,1.0,4.0,75,0.00,,SKC,0.01,0.00,VWS V14.00,2013-07-27 02:31:00,
2013-07-26 21:36:00,57.5,49.3,30.02,East,97,2.0,3.0,74,0.00,,SKC,0.01,0.00,VWS V14.00,2013-07-27 02:36:00,
2013-07-26 21:41:00,57.3,49.5,30.02,ENE,75,0.0,4.0,75,0.00,,SKC,0.01,0.00,VWS V14.00,2013-07-27 02:41:00,
2013-07-26 21:48:00,57.0,49.2,30.03,NE,53,0.0,6.0,75,0.00,,SKC,0.01,0.00,VWS V14.00,2013-07-27 02:48:00,
2013-07-26 21:53:00,56.8,49.3,30.04,ENE,76,1.0,3.0,76,0.00,,SKC,0.01,0.00,VWS V14.00,2013-07-27 02:53:00,
2013-07-26 21:58:00,56.6,49.1,30.04,East,86,1.0,4.0,76,0.00,,SKC,0.01,0.00,VWS V14.00,2013-07-27 02:58:00,
2013-07-26 22:03:00,56.5,49.4,30.04,ENE,65,0.0,4.0,77,0.00,,SKC,0.01,0.00,VWS V14.00,2013-07-27 03:03:00,
2013-07-26 22:08:00,56.4,49.3,30.04,NE,46,1.0,4.0,77,0.00,,SKC,0.01,0.00,VWS V14.00,2013-07-27 03:08:00,
2013-07-26 22:13:00,56.2,49.4,30.04,West,269,4.0,4.0,78,0.00,,SKC,0.01,0.00,VWS V14.00,2013-07-27 03:13:00,
2013-07-26 22:18:00,56.0,49.2,30.04,ENE,71,1.0,4.0,78,0.00,,SKC,0.01,0.00,VWS V14.00,2013-07-27 03:18:00,
2013-07-26 22:23:00,55.9,49.2,30.04,SSE,168,1.0,4.0,78,0.00,,SKC,0.01,0.00,VWS V14.00,2013-07-27 03:23:00,
2013-07-26 22:28:00,55.8,49.4,30.04,East,95,0.0,3.0,79,0.00,,SKC,0.01,0.00,VWS V14.00,2013-07-27 03:28:00,
2013-07-26 22:33:00,55.7,49.3,30.04,ESE,105,1.0,3.0,79,0.00,,SKC,0.01,0.00,VWS V14.00,2013-07-27 03:33:00,
2013-07-26 22:38:00,55.5,49.1,30.04,NE,42,0.0,2.0,79,0.00,,SKC,0.01,0.00,VWS V14.00,2013-07-27 03:38:00,
2013-07-26 22:43:00,55.4,49.0,30.04,East,89,0.0,4.0,79,0.00,,SKC,0.01,0.00,VWS V14.00,2013-07-27 03:43:00,
2013-07-26 22:48:00,55.2,49.2,30.04,NE,49,0.0,2.0,80,0.00,,SKC,0.01,0.00,VWS V14.00,2013-07-27 03:48:00,
2013-07-26 22:53:00,55.1,49.4,30.04,SSE,150,2.0,6.0,81,0.00,,SKC,0.01,0.00,VWS V14.00,2013-07-27 03:53:00,
2013-07-26 22:58:00,55.0,49.3,30.04,NW,319,1.0,3.0,81,0.00,,SKC,0.01,0.00,VWS V14.00,2013-07-27 03:58:00,
2013-07-26 23:02:00,54.9,49.2,30.04,ESE,107,0.0,4.0,81,0.00,,SKC,0.01,0.00,VWS V14.00,2013-07-27 04:02:00,
2013-07-26 23:03:00,54.9,49.5,30.05,ESE,106,0.0,4.0,82,0.00,,SKC,0.01,0.00,VWS V14.00,2013-07-27 04:03:00,
2013-07-26 23:05:00,54.9,49.5,30.05,ESE,109,0.0,1.0,82,0.00,,SKC,0.01,0.00,VWS V14.00,2013-07-27 04:05:00,
2013-07-26 23:10:00,54.8,49.4,30.04,SE,128,0.0,2.0,82,0.00,,SKC,0.01,0.00,VWS V14.00,2013-07-27 04:10:00,
2013-07-26 23:15:00,54.8,49.4,30.04,NNE,31,1.0,3.0,82,0.00,,SKC,0.01,0.00,VWS V14.00,2013-07-27 04:15:00,
2013-07-26 23:20:00,54.7,49.3,30.04,SSE,153,1.0,2.0,82,0.00,,SKC,0.01,0.00,VWS V14.00,2013-07-27 04:20:00,
2013-07-26 23:25:00,54.6,49.2,30.05,East,92,0.0,4.0,82,0.00,,SKC,0.01,0.00,VWS V14.00,2013-07-27 04:25:00,
2013-07-26 23:30:00,54.4,49.3,30.05,East,92,0.0,3.0,83,0.00,,SKC,0.01,0.00,VWS V14.00,2013-07-27 04:30:00,
2013-07-26 23:35:00,54.4,49.7,30.05,SW,228,0.0,1.0,84,0.00,,SKC,0.01,0.00,VWS V14.00,2013-07-27 04:35:00,
2013-07-26 23:40:00,54.3,49.6,30.04,ESE,111,0.0,2.0,84,0.00,,SKC,0.01,0.00,VWS V14.00,2013-07-27 04:40:00,
2013-07-26 23:45:00,54.1,49.7,30.05,NW,323,1.0,2.0,85,0.00,,SKC,0.01,0.00,VWS V14.00,2013-07-27 04:45:00,
2013-07-26 23:50:00,54.0,49.9,30.04,NW,309,0.0,1.0,86,0.00,,SKC,0.01,0.00,VWS V14.00,2013-07-27 04:50:00,
2013-07-26 23:55:00,53.9,49.8,30.05,ESE,110,0.0,2.0,86,0.00,,SKC,0.01,0.00,VWS V14.00,2013-07-27 04:55:00,